sensor_id;sensor_type;location;lat;lon;timestamp;temperature;humidity
37310;DHT22;23195;47.744;7.358;2023-12-07T00:00:28;3.80;99.90
37310;DHT22;23195;47.744;7.358;2023-12-07T00:02:54;3.60;99.90
37310;DHT22;23195;47.744;7.358;2023-12-07T00:05:19;3.60;99.90
37310;DHT22;23195;47.744;7.358;2023-12-07T00:07:57;3.60;99.90
37310;DHT22;23195;47.744;7.358;2023-12-07T00:10:22;3.60;99.90
37310;DHT22;23195;47.744;7.358;2023-12-07T00:12:48;3.50;99.90
37310;DHT22;23195;47.744;7.358;2023-12-07T00:15:14;3.50;99.90
37310;DHT22;23195;47.744;7.358;2023-12-07T00:17:40;4.10;99.90
37310;DHT22;23195;47.744;7.358;2023-12-07T00:20:06;3.50;99.90
37310;DHT22;23195;47.744;7.358;2023-12-07T00:22:32;3.40;99.90
37310;DHT22;23195;47.744;7.358;2023-12-07T00:24:58;3.40;99.90
37310;DHT22;23195;47.744;7.358;2023-12-07T00:27:23;2.80;99.90
37310;DHT22;23195;47.744;7.358;2023-12-07T00:29:49;3.30;99.90
37310;DHT22;23195;47.744;7.358;2023-12-07T00:32:15;3.20;99.90
37310;DHT22;23195;47.744;7.358;2023-12-07T00:34:43;3.20;99.90
37310;DHT22;23195;47.744;7.358;2023-12-07T00:37:08;3.10;99.90
37310;DHT22;23195;47.744;7.358;2023-12-07T00:39:35;3.00;99.90
37310;DHT22;23195;47.744;7.358;2023-12-07T00:42:03;3.00;99.90
37310;DHT22;23195;47.744;7.358;2023-12-07T00:44:29;2.90;99.90
37310;DHT22;23195;47.744;7.358;2023-12-07T00:46:55;2.90;99.90
37310;DHT22;23195;47.744;7.358;2023-12-07T00:49:20;2.80;99.90
37310;DHT22;23195;47.744;7.358;2023-12-07T00:51:46;2.70;99.90
37310;DHT22;23195;47.744;7.358;2023-12-07T00:54:15;2.70;99.90
37310;DHT22;23195;47.744;7.358;2023-12-07T00:56:41;2.30;99.90
37310;DHT22;23195;47.744;7.358;2023-12-07T00:59:06;2.60;99.90
37310;DHT22;23195;47.744;7.358;2023-12-07T01:01:32;2.40;99.90
37310;DHT22;23195;47.744;7.358;2023-12-07T01:03:58;2.40;99.90
37310;DHT22;23195;47.744;7.358;2023-12-07T01:06:24;2.40;99.90
37310;DHT22;23195;47.744;7.358;2023-12-07T01:08:50;2.30;99.90
37310;DHT22;23195;47.744;7.358;2023-12-07T01:11:18;2.10;99.90
37310;DHT22;23195;47.744;7.358;2023-12-07T01:13:43;2.10;99.90
37310;DHT22;23195;47.744;7.358;2023-12-07T01:16:10;2.00;99.90
37310;DHT22;23195;47.744;7.358;2023-12-07T01:18:39;1.90;99.90
37310;DHT22;23195;47.744;7.358;2023-12-07T01:21:13;1.80;99.90
37310;DHT22;23195;47.744;7.358;2023-12-07T01:23:39;1.40;99.90
37310;DHT22;23195;47.744;7.358;2023-12-07T01:26:05;1.80;99.90
37310;DHT22;23195;47.744;7.358;2023-12-07T01:28:31;1.70;99.90
37310;DHT22;23195;47.744;7.358;2023-12-07T01:30:56;1.60;99.90
37310;DHT22;23195;47.744;7.358;2023-12-07T01:33:25;1.60;99.90
37310;DHT22;23195;47.744;7.358;2023-12-07T01:35:51;1.50;99.90
37310;DHT22;23195;47.744;7.358;2023-12-07T01:38:17;1.50;99.90
37310;DHT22;23195;47.744;7.358;2023-12-07T01:40:43;1.40;99.90
37310;DHT22;23195;47.744;7.358;2023-12-07T01:43:08;1.40;99.90
37310;DHT22;23195;47.744;7.358;2023-12-07T01:45:34;1.40;99.90
37310;DHT22;23195;47.744;7.358;2023-12-07T01:48:00;1.40;99.90
37310;DHT22;23195;47.744;7.358;2023-12-07T01:50:26;0.00;99.90
37310;DHT22;23195;47.744;7.358;2023-12-07T01:52:59;1.20;99.90
37310;DHT22;23195;47.744;7.358;2023-12-07T01:55:26;1.20;99.90
37310;DHT22;23195;47.744;7.358;2023-12-07T01:57:55;1.30;99.90
37310;DHT22;23195;47.744;7.358;2023-12-07T02:00:21;1.20;99.90
37310;DHT22;23195;47.744;7.358;2023-12-07T02:02:47;1.10;99.90
37310;DHT22;23195;47.744;7.358;2023-12-07T02:05:14;1.20;99.90
37310;DHT22;23195;47.744;7.358;2023-12-07T02:07:43;1.10;99.90
37310;DHT22;23195;47.744;7.358;2023-12-07T02:10:11;1.00;99.90
37310;DHT22;23195;47.744;7.358;2023-12-07T02:12:39;1.00;99.90
37310;DHT22;23195;47.744;7.358;2023-12-07T02:15:05;0.90;99.90
37310;DHT22;23195;47.744;7.358;2023-12-07T02:20:13;0.90;99.90
37310;DHT22;23195;47.744;7.358;2023-12-07T02:22:47;-0.50;99.90
37310;DHT22;23195;47.744;7.358;2023-12-07T02:25:18;0.80;99.90
37310;DHT22;23195;47.744;7.358;2023-12-07T02:27:45;0.80;99.90
37310;DHT22;23195;47.744;7.358;2023-12-07T02:30:14;0.80;99.90
37310;DHT22;23195;47.744;7.358;2023-12-07T02:32:42;0.80;99.90
37310;DHT22;23195;47.744;7.358;2023-12-07T02:35:10;0.80;99.90
37310;DHT22;23195;47.744;7.358;2023-12-07T02:37:50;0.70;99.90
37310;DHT22;23195;47.744;7.358;2023-12-07T02:40:25;0.80;99.90
37310;DHT22;23195;47.744;7.358;2023-12-07T02:42:56;0.80;99.90
37310;DHT22;23195;47.744;7.358;2023-12-07T02:45:22;0.80;99.90
37310;DHT22;23195;47.744;7.358;2023-12-07T02:47:49;0.50;99.90
37310;DHT22;23195;47.744;7.358;2023-12-07T02:50:15;0.70;99.90
37310;DHT22;23195;47.744;7.358;2023-12-07T02:52:40;0.70;99.90
37310;DHT22;23195;47.744;7.358;2023-12-07T02:55:06;-0.20;99.90
37310;DHT22;23195;47.744;7.358;2023-12-07T02:57:33;0.60;99.90
37310;DHT22;23195;47.744;7.358;2023-12-07T03:00:07;0.60;99.90
37310;DHT22;23195;47.744;7.358;2023-12-07T03:02:38;0.60;99.90
37310;DHT22;23195;47.744;7.358;2023-12-07T03:05:05;0.10;99.90
37310;DHT22;23195;47.744;7.358;2023-12-07T03:07:32;0.70;99.90
37310;DHT22;23195;47.744;7.358;2023-12-07T03:09:58;0.80;99.90
37310;DHT22;23195;47.744;7.358;2023-12-07T03:12:24;1.00;99.90
37310;DHT22;23195;47.744;7.358;2023-12-07T03:14:49;1.00;99.90
37310;DHT22;23195;47.744;7.358;2023-12-07T03:17:15;1.10;99.90
37310;DHT22;23195;47.744;7.358;2023-12-07T03:19:41;1.10;99.90
37310;DHT22;23195;47.744;7.358;2023-12-07T03:22:07;1.30;99.90
37310;DHT22;23195;47.744;7.358;2023-12-07T03:24:37;1.30;99.90
37310;DHT22;23195;47.744;7.358;2023-12-07T03:27:06;1.40;99.90
37310;DHT22;23195;47.744;7.358;2023-12-07T03:29:32;1.40;99.90
37310;DHT22;23195;47.744;7.358;2023-12-07T03:31:58;1.70;99.90
37310;DHT22;23195;47.744;7.358;2023-12-07T03:34:24;1.30;99.90
37310;DHT22;23195;47.744;7.358;2023-12-07T03:36:51;1.30;99.90
37310;DHT22;23195;47.744;7.358;2023-12-07T03:39:18;1.20;99.90
37310;DHT22;23195;47.744;7.358;2023-12-07T03:41:51;1.00;99.90
37310;DHT22;23195;47.744;7.358;2023-12-07T03:44:17;1.00;99.90
37310;DHT22;23195;47.744;7.358;2023-12-07T03:46:43;0.90;99.90
37310;DHT22;23195;47.744;7.358;2023-12-07T03:49:09;0.90;99.90
37310;DHT22;23195;47.744;7.358;2023-12-07T03:51:34;0.80;99.90
37310;DHT22;23195;47.744;7.358;2023-12-07T03:54:02;0.70;99.90
37310;DHT22;23195;47.744;7.358;2023-12-07T03:56:29;0.70;99.90
37310;DHT22;23195;47.744;7.358;2023-12-07T03:58:55;0.60;99.90
37310;DHT22;23195;47.744;7.358;2023-12-07T04:01:26;0.60;99.90
37310;DHT22;23195;47.744;7.358;2023-12-07T04:03:56;0.60;99.90
37310;DHT22;23195;47.744;7.358;2023-12-07T04:06:26;0.60;99.90
37310;DHT22;23195;47.744;7.358;2023-12-07T04:08:52;0.70;99.90
37310;DHT22;23195;47.744;7.358;2023-12-07T04:11:18;0.70;99.90
37310;DHT22;23195;47.744;7.358;2023-12-07T04:13:44;0.80;99.90
37310;DHT22;23195;47.744;7.358;2023-12-07T04:16:10;0.90;99.90
37310;DHT22;23195;47.744;7.358;2023-12-07T04:18:37;1.00;99.90
37310;DHT22;23195;47.744;7.358;2023-12-07T04:21:03;1.10;99.90
37310;DHT22;23195;47.744;7.358;2023-12-07T04:23:29;1.10;99.90
37310;DHT22;23195;47.744;7.358;2023-12-07T04:25:58;1.10;99.90
37310;DHT22;23195;47.744;7.358;2023-12-07T04:28:23;1.20;99.90
37310;DHT22;23195;47.744;7.358;2023-12-07T04:30:49;1.30;99.90
37310;DHT22;23195;47.744;7.358;2023-12-07T04:33:15;1.30;99.90
37310;DHT22;23195;47.744;7.358;2023-12-07T04:35:44;1.40;99.90
37310;DHT22;23195;47.744;7.358;2023-12-07T04:38:10;1.50;99.90
37310;DHT22;23195;47.744;7.358;2023-12-07T04:40:35;1.60;99.90
37310;DHT22;23195;47.744;7.358;2023-12-07T04:43:01;1.60;99.90
37310;DHT22;23195;47.744;7.358;2023-12-07T04:45:27;1.60;99.90
37310;DHT22;23195;47.744;7.358;2023-12-07T04:47:53;1.60;99.90
37310;DHT22;23195;47.744;7.358;2023-12-07T04:50:19;1.60;99.90
37310;DHT22;23195;47.744;7.358;2023-12-07T04:52:45;1.70;99.90
37310;DHT22;23195;47.744;7.358;2023-12-07T04:55:11;1.70;99.90
37310;DHT22;23195;47.744;7.358;2023-12-07T04:57:36;1.70;99.90
37310;DHT22;23195;47.744;7.358;2023-12-07T05:00:03;1.70;99.90
37310;DHT22;23195;47.744;7.358;2023-12-07T05:02:32;1.80;99.90
37310;DHT22;23195;47.744;7.358;2023-12-07T05:04:58;2.00;99.90
37310;DHT22;23195;47.744;7.358;2023-12-07T05:07:24;1.90;99.90
37310;DHT22;23195;47.744;7.358;2023-12-07T05:09:50;2.00;99.90
37310;DHT22;23195;47.744;7.358;2023-12-07T05:12:19;2.40;99.90
37310;DHT22;23195;47.744;7.358;2023-12-07T05:14:44;2.00;99.90
37310;DHT22;23195;47.744;7.358;2023-12-07T05:17:10;2.00;99.90
37310;DHT22;23195;47.744;7.358;2023-12-07T05:19:36;2.10;99.90
37310;DHT22;23195;47.744;7.358;2023-12-07T05:22:02;2.10;99.90
37310;DHT22;23195;47.744;7.358;2023-12-07T05:24:28;2.10;99.90
37310;DHT22;23195;47.744;7.358;2023-12-07T05:26:54;2.00;99.90
37310;DHT22;23195;47.744;7.358;2023-12-07T05:29:19;2.10;99.90
37310;DHT22;23195;47.744;7.358;2023-12-07T05:31:48;2.10;99.90
37310;DHT22;23195;47.744;7.358;2023-12-07T05:34:15;2.00;99.90
37310;DHT22;23195;47.744;7.358;2023-12-07T05:36:41;2.00;99.90
37310;DHT22;23195;47.744;7.358;2023-12-07T05:39:06;1.90;99.90
37310;DHT22;23195;47.744;7.358;2023-12-07T05:41:33;1.80;99.90
37310;DHT22;23195;47.744;7.358;2023-12-07T05:43:58;1.70;99.90
37310;DHT22;23195;47.744;7.358;2023-12-07T05:46:24;1.70;99.90
37310;DHT22;23195;47.744;7.358;2023-12-07T05:48:50;1.70;99.90
37310;DHT22;23195;47.744;7.358;2023-12-07T05:51:17;1.60;99.90
37310;DHT22;23195;47.744;7.358;2023-12-07T05:53:44;1.50;99.90
37310;DHT22;23195;47.744;7.358;2023-12-07T05:56:10;1.40;99.90
37310;DHT22;23195;47.744;7.358;2023-12-07T05:58:37;1.30;99.90
37310;DHT22;23195;47.744;7.358;2023-12-07T06:01:03;1.30;99.90
37310;DHT22;23195;47.744;7.358;2023-12-07T06:03:29;1.30;99.90
37310;DHT22;23195;47.744;7.358;2023-12-07T06:05:55;1.30;99.90
37310;DHT22;23195;47.744;7.358;2023-12-07T06:08:24;1.30;99.90
37310;DHT22;23195;47.744;7.358;2023-12-07T06:10:50;1.30;99.90
37310;DHT22;23195;47.744;7.358;2023-12-07T06:13:15;1.30;99.90
37310;DHT22;23195;47.744;7.358;2023-12-07T06:15:41;1.20;99.90
37310;DHT22;23195;47.744;7.358;2023-12-07T06:18:09;1.20;99.90
37310;DHT22;23195;47.744;7.358;2023-12-07T06:20:35;1.20;99.90
37310;DHT22;23195;47.744;7.358;2023-12-07T06:23:01;1.20;99.90
37310;DHT22;23195;47.744;7.358;2023-12-07T06:25:29;1.30;99.90
37310;DHT22;23195;47.744;7.358;2023-12-07T06:27:55;0.00;99.90
37310;DHT22;23195;47.744;7.358;2023-12-07T06:30:21;1.30;99.90
37310;DHT22;23195;47.744;7.358;2023-12-07T06:32:47;1.30;99.90
37310;DHT22;23195;47.744;7.358;2023-12-07T06:35:13;1.40;99.90
37310;DHT22;23195;47.744;7.358;2023-12-07T06:37:42;1.40;99.90
37310;DHT22;23195;47.744;7.358;2023-12-07T06:40:11;1.50;99.90
37310;DHT22;23195;47.744;7.358;2023-12-07T06:42:37;1.40;99.90
37310;DHT22;23195;47.744;7.358;2023-12-07T06:45:04;1.40;99.90
37310;DHT22;23195;47.744;7.358;2023-12-07T06:47:38;1.50;99.90
37310;DHT22;23195;47.744;7.358;2023-12-07T06:50:05;1.40;99.90
37310;DHT22;23195;47.744;7.358;2023-12-07T06:52:34;1.30;99.90
37310;DHT22;23195;47.744;7.358;2023-12-07T06:55:03;1.40;99.90
37310;DHT22;23195;47.744;7.358;2023-12-07T06:57:34;1.40;99.90
37310;DHT22;23195;47.744;7.358;2023-12-07T07:00:00;1.40;99.90
37310;DHT22;23195;47.744;7.358;2023-12-07T07:02:27;1.40;99.90
37310;DHT22;23195;47.744;7.358;2023-12-07T07:04:52;1.50;99.90
37310;DHT22;23195;47.744;7.358;2023-12-07T07:07:18;1.70;99.90
37310;DHT22;23195;47.744;7.358;2023-12-07T07:09:44;1.60;99.90
37310;DHT22;23195;47.744;7.358;2023-12-07T07:12:11;1.60;99.90
37310;DHT22;23195;47.744;7.358;2023-12-07T07:14:37;1.60;99.90
37310;DHT22;23195;47.744;7.358;2023-12-07T07:17:05;1.60;99.90
37310;DHT22;23195;47.744;7.358;2023-12-07T07:19:30;1.70;99.90
37310;DHT22;23195;47.744;7.358;2023-12-07T07:21:57;1.70;99.90
37310;DHT22;23195;47.744;7.358;2023-12-07T07:24:25;1.60;99.90
37310;DHT22;23195;47.744;7.358;2023-12-07T07:26:51;1.90;99.90
37310;DHT22;23195;47.744;7.358;2023-12-07T07:29:17;1.80;99.90
37310;DHT22;23195;47.744;7.358;2023-12-07T07:31:43;1.80;99.90
37310;DHT22;23195;47.744;7.358;2023-12-07T07:34:09;1.90;99.90
37310;DHT22;23195;47.744;7.358;2023-12-07T07:36:37;1.90;99.90
37310;DHT22;23195;47.744;7.358;2023-12-07T07:39:03;1.80;99.90
37310;DHT22;23195;47.744;7.358;2023-12-07T07:41:34;1.90;99.90
37310;DHT22;23195;47.744;7.358;2023-12-07T07:44:00;1.80;99.90
37310;DHT22;23195;47.744;7.358;2023-12-07T07:46:26;1.80;99.90
37310;DHT22;23195;47.744;7.358;2023-12-07T07:48:51;1.80;99.90
37310;DHT22;23195;47.744;7.358;2023-12-07T07:51:17;1.90;99.90
37310;DHT22;23195;47.744;7.358;2023-12-07T07:53:43;2.00;99.90
37310;DHT22;23195;47.744;7.358;2023-12-07T07:56:09;2.70;99.90
37310;DHT22;23195;47.744;7.358;2023-12-07T07:58:38;2.10;99.90
37310;DHT22;23195;47.744;7.358;2023-12-07T08:01:04;2.20;99.90
37310;DHT22;23195;47.744;7.358;2023-12-07T08:03:30;2.20;99.90
37310;DHT22;23195;47.744;7.358;2023-12-07T08:05:56;1.50;99.90
37310;DHT22;23195;47.744;7.358;2023-12-07T08:08:22;2.40;99.90
37310;DHT22;23195;47.744;7.358;2023-12-07T08:10:47;2.50;99.90
37310;DHT22;23195;47.744;7.358;2023-12-07T08:13:13;2.50;99.90
37310;DHT22;23195;47.744;7.358;2023-12-07T08:15:39;2.40;99.90
37310;DHT22;23195;47.744;7.358;2023-12-07T08:18:05;2.60;99.90
37310;DHT22;23195;47.744;7.358;2023-12-07T08:20:31;2.60;99.90
37310;DHT22;23195;47.744;7.358;2023-12-07T08:23:00;2.60;99.90
37310;DHT22;23195;47.744;7.358;2023-12-07T08:25:26;2.70;99.90
37310;DHT22;23195;47.744;7.358;2023-12-07T08:27:52;2.70;99.90
37310;DHT22;23195;47.744;7.358;2023-12-07T08:30:17;2.70;99.90
37310;DHT22;23195;47.744;7.358;2023-12-07T08:32:47;2.80;99.90
37310;DHT22;23195;47.744;7.358;2023-12-07T08:35:13;3.60;99.90
37310;DHT22;23195;47.744;7.358;2023-12-07T08:37:42;2.90;99.90
37310;DHT22;23195;47.744;7.358;2023-12-07T08:40:08;3.00;99.90
37310;DHT22;23195;47.744;7.358;2023-12-07T08:42:36;3.10;99.90
37310;DHT22;23195;47.744;7.358;2023-12-07T08:45:02;3.10;99.90
37310;DHT22;23195;47.744;7.358;2023-12-07T08:47:30;3.20;99.90
37310;DHT22;23195;47.744;7.358;2023-12-07T08:49:57;3.30;99.90
37310;DHT22;23195;47.744;7.358;2023-12-07T08:52:23;3.30;99.90
37310;DHT22;23195;47.744;7.358;2023-12-07T08:54:49;3.40;99.90
37310;DHT22;23195;47.744;7.358;2023-12-07T08:57:14;3.50;99.90
37310;DHT22;23195;47.744;7.358;2023-12-07T08:59:40;4.00;99.90
37310;DHT22;23195;47.744;7.358;2023-12-07T09:02:06;3.60;99.90
37310;DHT22;23195;47.744;7.358;2023-12-07T09:04:32;3.70;99.90
37310;DHT22;23195;47.744;7.358;2023-12-07T09:06:58;3.80;99.90
37310;DHT22;23195;47.744;7.358;2023-12-07T09:09:23;3.00;99.90
37310;DHT22;23195;47.744;7.358;2023-12-07T09:11:51;3.60;99.90
37310;DHT22;23195;47.744;7.358;2023-12-07T09:14:16;3.50;99.90
37310;DHT22;23195;47.744;7.358;2023-12-07T09:16:46;3.00;99.90
37310;DHT22;23195;47.744;7.358;2023-12-07T09:19:13;3.40;99.90
37310;DHT22;23195;47.744;7.358;2023-12-07T09:21:40;3.30;99.90
37310;DHT22;23195;47.744;7.358;2023-12-07T09:24:06;3.30;99.90
37310;DHT22;23195;47.744;7.358;2023-12-07T09:26:32;3.40;99.90
37310;DHT22;23195;47.744;7.358;2023-12-07T09:28:58;3.60;99.90
37310;DHT22;23195;47.744;7.358;2023-12-07T09:31:24;3.60;99.90
37310;DHT22;23195;47.744;7.358;2023-12-07T09:33:50;3.70;99.90
37310;DHT22;23195;47.744;7.358;2023-12-07T09:36:19;3.80;99.90
37310;DHT22;23195;47.744;7.358;2023-12-07T09:38:46;3.90;99.90
37310;DHT22;23195;47.744;7.358;2023-12-07T09:41:12;3.90;99.90
37310;DHT22;23195;47.744;7.358;2023-12-07T09:43:39;4.00;99.90
37310;DHT22;23195;47.744;7.358;2023-12-07T09:46:05;4.10;99.90
37310;DHT22;23195;47.744;7.358;2023-12-07T09:48:36;4.10;99.90
37310;DHT22;23195;47.744;7.358;2023-12-07T09:51:04;4.10;99.90
37310;DHT22;23195;47.744;7.358;2023-12-07T09:53:33;4.20;99.90
37310;DHT22;23195;47.744;7.358;2023-12-07T09:56:02;4.30;99.90
37310;DHT22;23195;47.744;7.358;2023-12-07T09:58:28;4.50;99.90
37310;DHT22;23195;47.744;7.358;2023-12-07T10:00:56;4.50;99.90
37310;DHT22;23195;47.744;7.358;2023-12-07T10:03:22;3.90;99.90
37310;DHT22;23195;47.744;7.358;2023-12-07T10:05:56;4.30;99.90
37310;DHT22;23195;47.744;7.358;2023-12-07T10:08:33;4.20;99.90
37310;DHT22;23195;47.744;7.358;2023-12-07T10:11:16;4.20;99.90
37310;DHT22;23195;47.744;7.358;2023-12-07T10:13:43;4.30;99.90
37310;DHT22;23195;47.744;7.358;2023-12-07T10:16:14;4.20;99.90
37310;DHT22;23195;47.744;7.358;2023-12-07T10:18:41;3.10;99.90
37310;DHT22;23195;47.744;7.358;2023-12-07T10:21:13;4.20;99.90
37310;DHT22;23195;47.744;7.358;2023-12-07T10:23:41;4.20;99.90
37310;DHT22;23195;47.744;7.358;2023-12-07T10:26:12;4.20;99.90
37310;DHT22;23195;47.744;7.358;2023-12-07T10:28:39;4.20;99.90
37310;DHT22;23195;47.744;7.358;2023-12-07T10:31:09;4.10;99.90
37310;DHT22;23195;47.744;7.358;2023-12-07T10:33:35;4.00;99.90
37310;DHT22;23195;47.744;7.358;2023-12-07T10:36:03;4.00;99.90
37310;DHT22;23195;47.744;7.358;2023-12-07T10:38:29;4.20;99.90
37310;DHT22;23195;47.744;7.358;2023-12-07T10:41:08;4.30;99.90
37310;DHT22;23195;47.744;7.358;2023-12-07T10:43:37;4.30;99.90
37310;DHT22;23195;47.744;7.358;2023-12-07T10:46:05;4.40;99.90
37310;DHT22;23195;47.744;7.358;2023-12-07T10:48:35;4.40;99.90
37310;DHT22;23195;47.744;7.358;2023-12-07T10:51:06;4.70;99.90
37310;DHT22;23195;47.744;7.358;2023-12-07T10:53:44;4.20;99.90
37310;DHT22;23195;47.744;7.358;2023-12-07T10:56:13;4.30;99.90
37310;DHT22;23195;47.744;7.358;2023-12-07T10:58:42;3.50;99.90
37310;DHT22;23195;47.744;7.358;2023-12-07T11:01:11;4.30;99.90
37310;DHT22;23195;47.744;7.358;2023-12-07T11:03:38;4.40;99.90
37310;DHT22;23195;47.744;7.358;2023-12-07T11:06:09;4.40;99.90
37310;DHT22;23195;47.744;7.358;2023-12-07T11:08:59;4.40;99.90
37310;DHT22;23195;47.744;7.358;2023-12-07T11:11:34;4.40;99.90
37310;DHT22;23195;47.744;7.358;2023-12-07T11:14:06;4.40;99.90
37310;DHT22;23195;47.744;7.358;2023-12-07T11:16:36;4.50;99.90
37310;DHT22;23195;47.744;7.358;2023-12-07T11:19:04;4.50;99.90
37310;DHT22;23195;47.744;7.358;2023-12-07T11:21:30;4.60;99.90
37310;DHT22;23195;47.744;7.358;2023-12-07T11:24:02;4.50;99.90
37310;DHT22;23195;47.744;7.358;2023-12-07T11:26:29;4.60;99.90
37310;DHT22;23195;47.744;7.358;2023-12-07T11:28:55;4.20;99.90
37310;DHT22;23195;47.744;7.358;2023-12-07T11:31:22;4.80;99.90
37310;DHT22;23195;47.744;7.358;2023-12-07T11:33:48;3.60;99.90
37310;DHT22;23195;47.744;7.358;2023-12-07T11:36:16;4.90;99.90
37310;DHT22;23195;47.744;7.358;2023-12-07T11:41:34;4.80;99.90
37310;DHT22;23195;47.744;7.358;2023-12-07T11:43:59;5.00;99.90
37310;DHT22;23195;47.744;7.358;2023-12-07T11:46:25;5.10;99.90
37310;DHT22;23195;47.744;7.358;2023-12-07T11:48:54;5.20;99.90
37310;DHT22;23195;47.744;7.358;2023-12-07T11:51:20;5.20;99.90
37310;DHT22;23195;47.744;7.358;2023-12-07T11:53:46;5.10;99.90
37310;DHT22;23195;47.744;7.358;2023-12-07T11:56:14;5.10;99.90
37310;DHT22;23195;47.744;7.358;2023-12-07T11:58:44;5.20;99.90
37310;DHT22;23195;47.744;7.358;2023-12-07T12:01:10;5.10;99.90
37310;DHT22;23195;47.744;7.358;2023-12-07T12:03:36;5.30;99.90
37310;DHT22;23195;47.744;7.358;2023-12-07T12:06:04;5.20;99.90
37310;DHT22;23195;47.744;7.358;2023-12-07T12:08:31;5.30;99.90
37310;DHT22;23195;47.744;7.358;2023-12-07T12:10:59;5.10;99.90
37310;DHT22;23195;47.744;7.358;2023-12-07T12:13:35;5.00;99.90
37310;DHT22;23195;47.744;7.358;2023-12-07T12:16:01;4.90;99.90
37310;DHT22;23195;47.744;7.358;2023-12-07T12:18:30;4.80;99.90
37310;DHT22;23195;47.744;7.358;2023-12-07T12:20:56;4.90;99.90
37310;DHT22;23195;47.744;7.358;2023-12-07T12:23:24;5.00;99.90
37310;DHT22;23195;47.744;7.358;2023-12-07T12:25:54;5.10;99.90
37310;DHT22;23195;47.744;7.358;2023-12-07T12:28:21;5.10;99.90
37310;DHT22;23195;47.744;7.358;2023-12-07T12:30:50;5.00;99.90
37310;DHT22;23195;47.744;7.358;2023-12-07T12:33:16;5.20;99.90
37310;DHT22;23195;47.744;7.358;2023-12-07T12:35:42;5.30;99.90
37310;DHT22;23195;47.744;7.358;2023-12-07T12:38:12;5.30;99.90
37310;DHT22;23195;47.744;7.358;2023-12-07T12:40:38;5.10;99.90
37310;DHT22;23195;47.744;7.358;2023-12-07T12:43:04;5.00;99.90
37310;DHT22;23195;47.744;7.358;2023-12-07T12:45:31;5.00;99.90
37310;DHT22;23195;47.744;7.358;2023-12-07T12:47:58;5.10;99.90
37310;DHT22;23195;47.744;7.358;2023-12-07T12:50:36;5.10;99.90
37310;DHT22;23195;47.744;7.358;2023-12-07T12:53:04;4.90;99.90
37310;DHT22;23195;47.744;7.358;2023-12-07T12:58:25;5.00;99.90
37310;DHT22;23195;47.744;7.358;2023-12-07T13:00:52;5.00;99.90
37310;DHT22;23195;47.744;7.358;2023-12-07T13:03:18;5.10;99.90
37310;DHT22;23195;47.744;7.358;2023-12-07T13:05:44;5.30;99.90
37310;DHT22;23195;47.744;7.358;2023-12-07T13:08:30;5.20;99.90
37310;DHT22;23195;47.744;7.358;2023-12-07T13:11:01;6.10;99.90
37310;DHT22;23195;47.744;7.358;2023-12-07T13:13:28;5.30;99.90
37310;DHT22;23195;47.744;7.358;2023-12-07T13:16:01;5.30;99.90
37310;DHT22;23195;47.744;7.358;2023-12-07T13:18:28;5.30;99.90
37310;DHT22;23195;47.744;7.358;2023-12-07T13:20:53;5.40;99.90
37310;DHT22;23195;47.744;7.358;2023-12-07T13:23:22;5.30;99.90
37310;DHT22;23195;47.744;7.358;2023-12-07T13:25:51;5.40;99.90
37310;DHT22;23195;47.744;7.358;2023-12-07T13:28:17;5.30;99.90
37310;DHT22;23195;47.744;7.358;2023-12-07T13:30:43;5.30;99.90
37310;DHT22;23195;47.744;7.358;2023-12-07T13:33:09;5.00;99.90
37310;DHT22;23195;47.744;7.358;2023-12-07T13:35:35;5.20;99.90
37310;DHT22;23195;47.744;7.358;2023-12-07T13:38:03;5.30;99.90
37310;DHT22;23195;47.744;7.358;2023-12-07T13:40:30;4.90;99.90
37310;DHT22;23195;47.744;7.358;2023-12-07T13:42:56;5.30;99.90
37310;DHT22;23195;47.744;7.358;2023-12-07T13:45:21;5.30;99.90
37310;DHT22;23195;47.744;7.358;2023-12-07T13:47:47;5.30;99.90
37310;DHT22;23195;47.744;7.358;2023-12-07T13:50:13;5.30;99.90
37310;DHT22;23195;47.744;7.358;2023-12-07T13:52:39;5.20;99.90
37310;DHT22;23195;47.744;7.358;2023-12-07T13:55:05;5.30;99.90
37310;DHT22;23195;47.744;7.358;2023-12-07T13:57:34;5.30;99.90
37310;DHT22;23195;47.744;7.358;2023-12-07T14:00:00;5.20;99.90
37310;DHT22;23195;47.744;7.358;2023-12-07T14:02:26;5.10;99.90
37310;DHT22;23195;47.744;7.358;2023-12-07T14:04:54;5.10;99.90
37310;DHT22;23195;47.744;7.358;2023-12-07T14:07:21;5.00;99.90
37310;DHT22;23195;47.744;7.358;2023-12-07T14:09:51;4.90;99.90
37310;DHT22;23195;47.744;7.358;2023-12-07T14:12:17;4.90;99.90
37310;DHT22;23195;47.744;7.358;2023-12-07T14:14:47;4.80;99.90
37310;DHT22;23195;47.744;7.358;2023-12-07T14:17:16;4.10;99.90
37310;DHT22;23195;47.744;7.358;2023-12-07T14:19:43;4.40;99.90
37310;DHT22;23195;47.744;7.358;2023-12-07T14:22:09;4.90;99.90
37310;DHT22;23195;47.744;7.358;2023-12-07T14:24:36;4.90;99.90
37310;DHT22;23195;47.744;7.358;2023-12-07T14:27:06;5.00;99.90
37310;DHT22;23195;47.744;7.358;2023-12-07T14:29:33;5.10;99.90
37310;DHT22;23195;47.744;7.358;2023-12-07T14:31:59;5.20;99.90
37310;DHT22;23195;47.744;7.358;2023-12-07T14:34:26;5.20;99.90
37310;DHT22;23195;47.744;7.358;2023-12-07T14:36:53;5.20;99.90
37310;DHT22;23195;47.744;7.358;2023-12-07T14:39:22;5.20;99.90
37310;DHT22;23195;47.744;7.358;2023-12-07T14:41:49;5.10;99.90
37310;DHT22;23195;47.744;7.358;2023-12-07T14:44:19;5.00;99.90
37310;DHT22;23195;47.744;7.358;2023-12-07T14:46:46;5.00;99.90
37310;DHT22;23195;47.744;7.358;2023-12-07T14:49:12;4.80;99.90
37310;DHT22;23195;47.744;7.358;2023-12-07T14:51:39;4.70;99.90
37310;DHT22;23195;47.744;7.358;2023-12-07T14:54:06;3.50;99.90
37310;DHT22;23195;47.744;7.358;2023-12-07T14:56:32;4.40;99.90
37310;DHT22;23195;47.744;7.358;2023-12-07T14:59:01;4.40;99.90
37310;DHT22;23195;47.744;7.358;2023-12-07T15:01:28;4.30;99.90
37310;DHT22;23195;47.744;7.358;2023-12-07T15:03:54;4.30;99.90
37310;DHT22;23195;47.744;7.358;2023-12-07T15:06:19;4.10;99.90
37310;DHT22;23195;47.744;7.358;2023-12-07T15:08:45;4.10;99.90
37310;DHT22;23195;47.744;7.358;2023-12-07T15:11:12;4.10;99.90
37310;DHT22;23195;47.744;7.358;2023-12-07T15:13:39;4.00;99.90
37310;DHT22;23195;47.744;7.358;2023-12-07T15:16:05;3.80;99.90
37310;DHT22;23195;47.744;7.358;2023-12-07T15:18:31;4.30;99.90
37310;DHT22;23195;47.744;7.358;2023-12-07T15:21:03;3.70;99.90
37310;DHT22;23195;47.744;7.358;2023-12-07T15:23:29;3.70;99.90
37310;DHT22;23195;47.744;7.358;2023-12-07T15:25:55;3.60;99.90
37310;DHT22;23195;47.744;7.358;2023-12-07T15:28:22;3.50;99.90
37310;DHT22;23195;47.744;7.358;2023-12-07T15:30:48;3.40;99.90
37310;DHT22;23195;47.744;7.358;2023-12-07T15:33:17;3.40;99.90
37310;DHT22;23195;47.744;7.358;2023-12-07T15:35:43;3.20;99.90
37310;DHT22;23195;47.744;7.358;2023-12-07T15:38:09;3.20;99.90
37310;DHT22;23195;47.744;7.358;2023-12-07T15:40:38;1.90;99.90
37310;DHT22;23195;47.744;7.358;2023-12-07T15:43:04;2.90;99.90
37310;DHT22;23195;47.744;7.358;2023-12-07T15:45:30;2.90;99.90
37310;DHT22;23195;47.744;7.358;2023-12-07T15:47:56;2.80;99.90
37310;DHT22;23195;47.744;7.358;2023-12-07T15:50:22;2.10;99.90
37310;DHT22;23195;47.744;7.358;2023-12-07T15:52:50;2.70;99.90